createdAt,value
2022-08-08T00:02:03.035Z,100.00
2022-08-08T00:04:34.787Z,100.00
2022-08-08T00:07:33.650Z,100.00
2022-08-08T00:10:11.750Z,100.00
2022-08-08T00:12:56.203Z,100.00
2022-08-08T00:15:57.036Z,100.00
2022-08-08T00:18:26.815Z,100.00
2022-08-08T00:20:58.999Z,100.00
2022-08-08T00:23:51.146Z,100.00
2022-08-08T00:26:29.516Z,100.00
2022-08-08T00:29:11.464Z,100.00
2022-08-08T00:32:28.438Z,100.00
2022-08-08T00:35:20.708Z,100.00
2022-08-08T00:38:32.379Z,100.00
2022-08-08T00:41:22.176Z,100.00
2022-08-08T00:44:11.122Z,100.00
2022-08-08T00:47:24.011Z,100.00
2022-08-08T00:49:59.074Z,100.00
2022-08-08T00:52:57.271Z,100.00
2022-08-08T00:55:53.445Z,100.00
2022-08-08T00:58:20.023Z,100.00
2022-08-08T01:01:12.240Z,100.00
2022-08-08T01:04:09.638Z,100.00
2022-08-08T01:07:08.887Z,100.00
2022-08-08T01:10:14.585Z,100.00
2022-08-08T01:12:56.600Z,100.00
2022-08-08T01:16:16.925Z,100.00
2022-08-08T01:18:55.962Z,100.00
2022-08-08T01:22:11.869Z,100.00
2022-08-08T01:24:50.728Z,100.00
2022-08-08T01:27:46.390Z,100.00
2022-08-08T01:31:06.103Z,100.00
2022-08-08T01:34:23.634Z,100.00
2022-08-08T01:37:13.785Z,100.00
2022-08-08T01:39:44.653Z,100.00
2022-08-08T01:42:36.532Z,100.00
2022-08-08T01:45:29.090Z,100.00
2022-08-08T01:48:31.121Z,100.00
2022-08-08T01:51:29.778Z,100.00
2022-08-08T01:55:45.569Z,100.00
2022-08-08T01:58:04.536Z,100.00
2022-08-08T02:00:48.521Z,100.00
2022-08-08T02:03:55.148Z,100.00
2022-08-08T02:06:43.535Z,100.00
2022-08-08T02:10:01.478Z,100.00
2022-08-08T02:12:32.247Z,100.00
2022-08-08T02:15:11.182Z,100.00
2022-08-08T02:18:00.073Z,100.00
2022-08-08T02:21:03.049Z,100.00
2022-08-08T02:23:32.296Z,100.00
2022-08-08T02:26:16.108Z,100.00
2022-08-08T02:29:14.884Z,100.00
2022-08-08T02:32:22.770Z,100.00
2022-08-08T02:35:08.254Z,100.00
2022-08-08T02:38:09.248Z,100.00
2022-08-08T02:41:18.017Z,100.00
2022-08-08T02:44:39.378Z,100.00
2022-08-08T02:47:01.669Z,100.00
2022-08-08T02:49:56.611Z,100.00
2022-08-08T02:52:51.413Z,100.00
2022-08-08T02:55:37.211Z,100.00
2022-08-08T02:58:10.747Z,100.00
2022-08-08T03:01:05.337Z,100.00
2022-08-08T03:05:03.952Z,100.00
2022-08-08T03:07:58.170Z,100.00
2022-08-08T03:10:36.993Z,100.00
2022-08-08T03:15:53.464Z,100.00
2022-08-08T03:16:35.425Z,100.00
2022-08-08T03:19:34.538Z,100.00
2022-08-08T03:22:04.979Z,100.00
2022-08-08T03:24:57.024Z,100.00
2022-08-08T03:27:42.022Z,100.00
2022-08-08T03:30:18.995Z,100.00
2022-08-08T03:33:55.699Z,100.00
2022-08-08T03:35:59.744Z,100.00
2022-08-08T03:38:54.881Z,100.00
2022-08-08T03:42:11.560Z,100.00
2022-08-08T03:44:00.539Z,100.00
2022-08-08T03:46:32.389Z,100.00
2022-08-08T03:49:38.088Z,100.00
2022-08-08T03:51:54.630Z,100.00
2022-08-08T03:54:41.335Z,100.00
2022-08-08T03:58:32.449Z,100.00
2022-08-08T04:00:11.968Z,100.00
2022-08-08T04:03:11.781Z,100.00
2022-08-08T04:05:47.955Z,100.00
2022-08-08T04:08:33.089Z,100.00
2022-08-08T04:11:11.140Z,100.00
2022-08-08T04:14:33.137Z,100.00
2022-08-08T04:16:38.915Z,100.00
2022-08-08T04:19:24.165Z,100.00
2022-08-08T04:21:56.275Z,100.00
2022-08-08T04:24:28.678Z,100.00
2022-08-08T04:26:58.810Z,100.00
2022-08-08T04:29:36.852Z,100.00
2022-08-08T04:32:07.561Z,100.00
2022-08-08T04:34:42.779Z,100.00
2022-08-08T04:37:16.808Z,100.00
2022-08-08T04:40:03.139Z,100.00
2022-08-08T04:42:34.075Z,100.00
2022-08-08T04:45:05.693Z,100.00
2022-08-08T04:47:36.771Z,100.00
2022-08-08T04:50:24.825Z,100.00
2022-08-08T04:53:00.577Z,100.00
2022-08-08T04:55:47.762Z,100.00
2022-08-08T04:58:20.222Z,100.00
2022-08-08T05:00:50.119Z,100.00
2022-08-08T05:04:08.155Z,100.00
2022-08-08T05:06:13.220Z,100.00
2022-08-08T05:08:42.805Z,100.00
2022-08-08T05:11:18.749Z,100.00
2022-08-08T05:13:58.244Z,100.00
2022-08-08T05:16:51.256Z,100.00
2022-08-08T05:20:09.692Z,100.00
2022-08-08T05:22:06.396Z,100.00
2022-08-08T05:24:37.427Z,100.00
2022-08-08T05:27:05.190Z,100.00
2022-08-08T05:29:35.786Z,100.00
2022-08-08T05:32:07.960Z,100.00
2022-08-08T05:34:36.490Z,100.00
2022-08-08T05:37:07.597Z,100.00
2022-08-08T05:39:49.970Z,100.00
2022-08-08T05:42:19.194Z,100.00
2022-08-08T05:44:49.053Z,100.00
2022-08-08T05:47:22.077Z,100.00
2022-08-08T05:49:54.269Z,100.00
2022-08-08T05:52:32.305Z,100.00
2022-08-08T05:55:11.271Z,100.00
2022-08-08T05:58:04.580Z,100.00
2022-08-08T06:00:35.025Z,100.00
2022-08-08T06:03:17.567Z,100.00
2022-08-08T06:06:01.245Z,100.00
2022-08-08T06:08:53.084Z,100.00
2022-08-08T06:11:22.748Z,100.00
2022-08-08T06:13:55.158Z,100.00
2022-08-08T06:16:27.227Z,100.00
2022-08-08T06:19:05.018Z,100.00
2022-08-08T06:21:48.889Z,100.00
2022-08-08T06:24:31.003Z,100.00
2022-08-08T06:27:10.497Z,100.00
2022-08-08T06:30:01.150Z,100.00
2022-08-08T06:32:52.627Z,100.00
2022-08-08T06:36:04.861Z,100.00
2022-08-08T06:38:14.856Z,100.00
2022-08-08T06:40:53.586Z,100.00
2022-08-08T06:43:33.889Z,100.00
2022-08-08T06:46:08.731Z,100.00
2022-08-08T06:48:38.241Z,100.00
2022-08-08T06:51:07.763Z,100.00
2022-08-08T06:53:39.646Z,100.00
2022-08-08T06:56:08.961Z,100.00
2022-08-08T06:58:37.020Z,100.00
2022-08-08T07:01:14.351Z,100.00
2022-08-08T07:04:37.969Z,100.00
2022-08-08T07:06:56.162Z,100.00
2022-08-08T07:09:59.753Z,100.00
2022-08-08T07:12:48.052Z,100.00
2022-08-08T07:16:04.994Z,100.00
2022-08-08T07:19:06.205Z,100.00
2022-08-08T07:21:50.530Z,100.00
2022-08-08T07:24:26.920Z,100.00
2022-08-08T07:26:59.838Z,100.00
2022-08-08T07:30:00.956Z,100.00
2022-08-08T07:32:22.460Z,100.00
2022-08-08T07:35:00.126Z,100.00
2022-08-08T07:37:49.497Z,100.00
2022-08-08T07:40:29.643Z,100.00
2022-08-08T07:43:02.208Z,100.00
2022-08-08T07:45:34.965Z,100.00
2022-08-08T07:48:19.541Z,100.00
2022-08-08T07:50:48.087Z,100.00
2022-08-08T07:54:01.333Z,100.00
2022-08-08T07:56:17.630Z,100.00
2022-08-08T07:59:14.383Z,100.00
2022-08-08T08:02:36.322Z,100.00
2022-08-08T08:04:57.020Z,100.00
2022-08-08T08:07:37.602Z,100.00
2022-08-08T08:10:08.190Z,100.00
2022-08-08T08:12:50.363Z,100.00
2022-08-08T08:15:23.212Z,100.00
2022-08-08T08:17:58.108Z,100.00
2022-08-08T08:20:30.390Z,100.00
2022-08-08T08:22:59.131Z,100.00
2022-08-08T08:25:43.720Z,100.00
2022-08-08T08:28:21.599Z,100.00
2022-08-08T08:30:53.589Z,100.00
2022-08-08T08:33:22.661Z,100.00
2022-08-08T08:36:20.330Z,100.00
2022-08-08T08:38:49.277Z,100.00
2022-08-08T08:41:20.146Z,100.00
2022-08-08T08:43:50.640Z,100.00
2022-08-08T08:46:20.099Z,100.00
2022-08-08T08:48:54.986Z,100.00
2022-08-08T08:51:26.716Z,100.00
2022-08-08T08:54:01.838Z,100.00
2022-08-08T08:56:38.150Z,100.00
2022-08-08T08:59:17.219Z,100.00
2022-08-08T09:01:55.140Z,100.00
2022-08-08T09:04:38.544Z,100.00
2022-08-08T09:07:22.602Z,100.00
2022-08-08T09:09:57.126Z,100.00
2022-08-08T09:12:29.062Z,100.00
2022-08-08T09:14:58.928Z,100.00
2022-08-08T09:17:41.790Z,100.00
2022-08-08T09:22:01.477Z,100.00
2022-08-08T09:23:10.528Z,100.00
2022-08-08T09:25:58.368Z,100.00
2022-08-08T09:28:38.600Z,100.00
2022-08-08T09:31:16.395Z,100.00
2022-08-08T09:34:15.276Z,100.00
2022-08-08T09:37:10.286Z,100.00
2022-08-08T09:39:59.671Z,100.00
2022-08-08T09:42:44.185Z,100.00
2022-08-08T09:46:01.943Z,100.00
2022-08-08T09:48:36.608Z,100.00
2022-08-08T09:51:05.916Z,100.00
2022-08-08T09:53:59.384Z,100.00
2022-08-08T09:56:41.014Z,100.00
2022-08-08T09:59:42.762Z,100.00
2022-08-08T10:02:02.742Z,100.00
2022-08-08T10:04:47.699Z,100.00
2022-08-08T10:07:17.544Z,100.00
2022-08-08T10:10:00.487Z,100.00
2022-08-08T10:12:53.856Z,100.00
2022-08-08T10:15:36.120Z,100.00
2022-08-08T10:18:11.596Z,100.00
2022-08-08T10:20:51.217Z,100.00
2022-08-08T10:23:42.167Z,100.00
2022-08-08T10:26:30.043Z,96.46
2022-08-08T10:29:05.694Z,96.83
2022-08-08T10:31:54.766Z,96.09
2022-08-08T10:34:24.313Z,94.23
2022-08-08T10:36:56.174Z,93.19
2022-08-08T10:39:43.132Z,93.69
2022-08-08T10:42:17.729Z,100.00
2022-08-08T10:44:49.343Z,100.00
2022-08-08T10:47:21.055Z,92.86
2022-08-08T10:50:05.339Z,88.11
2022-08-08T10:52:40.150Z,84.75
2022-08-08T10:55:41.663Z,83.62
2022-08-08T10:58:05.880Z,83.47
2022-08-08T11:00:39.233Z,85.95
2022-08-08T11:03:36.759Z,90.32
2022-08-08T11:06:12.599Z,92.75
2022-08-08T11:08:49.911Z,90.16
2022-08-08T11:11:32.313Z,91.53
2022-08-08T11:14:12.378Z,88.20
2022-08-08T11:16:46.311Z,86.12
2022-08-08T11:19:15.553Z,85.09
2022-08-08T11:21:54.196Z,85.98
2022-08-08T11:24:25.752Z,87.50
2022-08-08T11:26:57.141Z,96.19
2022-08-08T11:29:41.885Z,95.46
2022-08-08T11:32:14.489Z,96.92
2022-08-08T11:35:07.930Z,92.83
2022-08-08T11:38:35.057Z,90.77
2022-08-08T11:40:22.401Z,90.14
2022-08-08T11:42:54.311Z,89.75
2022-08-08T11:45:22.588Z,89.41
2022-08-08T11:48:02.684Z,92.19
2022-08-08T11:50:33.962Z,95.68
2022-08-08T11:53:06.270Z,97.74
2022-08-08T11:55:36.264Z,99.64
2022-08-08T11:58:14.727Z,93.61
2022-08-08T12:00:47.449Z,91.73
2022-08-08T12:03:30.670Z,92.90
2022-08-08T12:05:58.115Z,89.40
2022-08-08T12:08:36.424Z,94.90
2022-08-08T12:11:10.810Z,95.65
2022-08-08T12:14:02.551Z,92.37
2022-08-08T12:16:31.806Z,91.07
2022-08-08T12:19:12.116Z,92.12
2022-08-08T12:22:00.034Z,92.62
2022-08-08T12:24:27.707Z,89.33
2022-08-08T12:26:56.946Z,90.77
2022-08-08T12:29:40.309Z,90.05
2022-08-08T12:32:19.885Z,96.22
2022-08-08T12:35:01.320Z,95.63
2022-08-08T12:37:41.048Z,90.88
2022-08-08T12:40:22.910Z,87.89
2022-08-08T12:42:51.984Z,88.86
2022-08-08T12:45:54.957Z,83.70
2022-08-08T12:48:37.708Z,88.27
2022-08-08T12:51:07.862Z,82.09
2022-08-08T12:53:58.717Z,86.48
2022-08-08T12:56:38.098Z,85.95
2022-08-08T12:59:36.632Z,82.33
2022-08-08T13:02:22.524Z,85.61
2022-08-08T13:04:57.776Z,88.07
2022-08-08T13:08:04.070Z,92.34
2022-08-08T13:10:39.863Z,89.51
2022-08-08T13:13:35.318Z,88.16
2022-08-08T13:16:37.589Z,81.44
2022-08-08T13:19:13.985Z,85.03
2022-08-08T13:21:53.376Z,78.54
2022-08-08T13:24:42.713Z,77.73
2022-08-08T13:27:18.932Z,77.76
2022-08-08T13:29:53.189Z,76.79
2022-08-08T13:32:23.566Z,77.34
2022-08-08T13:34:56.498Z,84.05
2022-08-08T13:37:28.016Z,84.92
2022-08-08T13:40:17.943Z,85.14
2022-08-08T13:42:54.834Z,86.79
2022-08-08T13:45:24.284Z,87.53
2022-08-08T13:48:02.849Z,81.10
2022-08-08T13:50:49.399Z,79.90
2022-08-08T13:53:31.473Z,74.42
2022-08-08T13:56:05.115Z,74.81
2022-08-08T13:58:33.242Z,76.13
2022-08-08T14:01:19.761Z,74.68
2022-08-08T14:03:58.817Z,71.80
2022-08-08T14:06:34.193Z,74.20
2022-08-08T14:09:25.080Z,73.35
2022-08-08T14:11:49.922Z,75.97
2022-08-08T14:14:20.898Z,80.69
2022-08-08T14:16:52.833Z,76.10
2022-08-08T14:19:56.250Z,73.08
2022-08-08T14:22:20.562Z,78.07
2022-08-08T14:25:08.898Z,79.18
2022-08-08T14:27:42.245Z,76.92
2022-08-08T14:30:34.361Z,78.18
2022-08-08T14:33:01.712Z,74.61
2022-08-08T14:35:36.082Z,74.98
2022-08-08T14:38:34.765Z,77.63
2022-08-08T14:40:59.054Z,74.80
2022-08-08T14:44:01.897Z,76.98
2022-08-08T14:46:18.877Z,73.04
2022-08-08T14:49:20.186Z,70.94
2022-08-08T14:51:53.261Z,72.05
2022-08-08T14:54:28.409Z,70.82
2022-08-08T14:56:56.219Z,72.04
2022-08-08T14:59:44.363Z,73.72
2022-08-08T15:02:10.742Z,75.06
2022-08-08T15:04:43.015Z,73.32
2022-08-08T15:07:22.209Z,73.33
2022-08-08T15:09:50.037Z,73.05
2022-08-08T15:12:27.318Z,74.64
2022-08-08T15:15:01.520Z,72.91
2022-08-08T15:17:33.784Z,69.22
2022-08-08T15:20:06.102Z,70.19
2022-08-08T15:22:35.640Z,70.65
2022-08-08T15:25:08.816Z,72.89
2022-08-08T15:28:04.585Z,71.71
2022-08-08T15:30:31.806Z,72.55
2022-08-08T15:32:59.371Z,72.97
2022-08-08T15:35:27.213Z,70.95
2022-08-08T15:37:56.683Z,70.26
2022-08-08T15:40:23.295Z,71.06
2022-08-08T15:42:55.733Z,69.84
2022-08-08T15:45:22.820Z,72.20
2022-08-08T15:48:10.990Z,74.29
2022-08-08T15:50:56.324Z,75.45
2022-08-08T15:53:27.473Z,74.05
2022-08-08T15:56:00.016Z,73.49
2022-08-08T15:58:28.297Z,73.51
2022-08-08T16:00:58.581Z,71.75
2022-08-08T16:03:25.283Z,74.79
2022-08-08T16:06:00.869Z,74.68
2022-08-08T16:08:28.390Z,75.21
2022-08-08T16:13:12.265Z,76.67
2022-08-08T16:13:43.884Z,79.40
2022-08-08T16:16:17.844Z,78.46
2022-08-08T16:18:56.958Z,79.11
2022-08-08T16:21:30.620Z,76.65
2022-08-08T16:24:00.563Z,74.51
2022-08-08T16:26:33.795Z,77.16
2022-08-08T16:29:15.536Z,80.03
2022-08-08T16:31:49.220Z,76.71
2022-08-08T16:34:21.236Z,77.27
2022-08-08T16:36:52.079Z,76.47
2022-08-08T16:39:59.554Z,75.86
2022-08-08T16:42:13.832Z,75.34
2022-08-08T16:44:54.020Z,76.30
2022-08-08T16:47:39.950Z,75.23
2022-08-08T16:50:15.815Z,75.23
2022-08-08T16:55:03.023Z,74.60
2022-08-08T16:55:54.269Z,71.41
2022-08-08T16:58:25.598Z,70.09
2022-08-08T17:00:54.294Z,74.87
2022-08-08T17:03:25.250Z,75.46
2022-08-08T17:06:36.209Z,71.68
2022-08-08T17:08:56.987Z,69.91
2022-08-08T17:11:28.310Z,68.55
2022-08-08T17:14:18.085Z,68.32
2022-08-08T17:16:57.525Z,70.45
2022-08-08T17:19:27.216Z,68.22
2022-08-08T17:21:54.451Z,68.44
2022-08-08T17:24:27.952Z,68.70
2022-08-08T17:26:58.926Z,69.50
2022-08-08T17:29:27.247Z,70.57
2022-08-08T17:31:55.206Z,69.64
2022-08-08T17:34:49.709Z,70.22
2022-08-08T17:37:13.681Z,68.84
2022-08-08T17:40:03.439Z,68.13
2022-08-08T17:42:27.765Z,68.97
2022-08-08T17:44:54.637Z,67.99
2022-08-08T17:47:23.858Z,68.51
2022-08-08T17:49:52.988Z,68.43
2022-08-08T17:52:28.141Z,69.05
2022-08-08T17:54:56.394Z,69.39
2022-08-08T17:57:23.773Z,68.58
2022-08-08T17:59:51.877Z,67.76
2022-08-08T18:02:28.496Z,69.09
2022-08-08T18:04:57.966Z,70.28
2022-08-08T18:08:02.455Z,71.81
2022-08-08T18:10:11.519Z,73.61
2022-08-08T18:12:38.123Z,73.76
2022-08-08T18:15:07.350Z,72.44
2022-08-08T18:18:08.951Z,74.01
2022-08-08T18:20:43.111Z,74.41
2022-08-08T18:23:14.560Z,74.40
2022-08-08T18:25:43.052Z,75.36
2022-08-08T18:28:13.466Z,74.62
2022-08-08T18:30:42.669Z,73.15
2022-08-08T18:33:36.611Z,74.84
2022-08-08T18:36:03.166Z,74.66
2022-08-08T18:38:31.202Z,75.29
2022-08-08T18:40:59.227Z,76.14
2022-08-08T18:43:38.014Z,75.10
2022-08-08T18:46:57.263Z,81.31
2022-08-08T18:48:58.034Z,81.88
2022-08-08T18:51:54.138Z,83.04
2022-08-08T18:54:22.763Z,82.14
2022-08-08T18:56:56.980Z,87.03
2022-08-08T18:59:24.106Z,87.88
2022-08-08T19:02:25.917Z,90.94
2022-08-08T19:04:38.115Z,91.77
2022-08-08T19:07:05.267Z,95.66
2022-08-08T19:09:48.918Z,98.60
2022-08-08T19:12:19.326Z,100.00
2022-08-08T19:14:53.086Z,100.00
2022-08-08T19:17:29.607Z,100.00
2022-08-08T19:20:06.921Z,100.00
2022-08-08T19:22:36.160Z,100.00
2022-08-08T19:26:02.516Z,100.00
2022-08-08T19:27:57.226Z,100.00
2022-08-08T19:30:26.856Z,100.00
2022-08-08T19:32:58.222Z,100.00
2022-08-08T19:35:44.355Z,100.00
2022-08-08T19:38:17.467Z,100.00
2022-08-08T19:40:54.373Z,100.00
2022-08-08T19:43:28.031Z,100.00
2022-08-08T19:45:59.060Z,100.00
2022-08-08T19:48:29.084Z,100.00
2022-08-08T19:50:59.294Z,100.00
2022-08-08T19:53:51.928Z,100.00
2022-08-08T19:56:16.463Z,100.00
2022-08-08T19:58:53.052Z,100.00
2022-08-08T20:01:31.613Z,100.00
2022-08-08T20:04:09.150Z,100.00
2022-08-08T20:06:36.259Z,100.00
2022-08-08T20:09:08.623Z,100.00
2022-08-08T20:11:43.245Z,100.00
2022-08-08T20:14:32.644Z,100.00
2022-08-08T20:16:59.575Z,100.00
2022-08-08T20:19:26.694Z,100.00
2022-08-08T20:22:04.955Z,100.00
2022-08-08T20:24:39.593Z,100.00
2022-08-08T20:27:09.215Z,100.00
2022-08-08T20:29:56.101Z,100.00
2022-08-08T20:32:26.723Z,100.00
2022-08-08T20:35:01.431Z,100.00
2022-08-08T20:37:47.043Z,100.00
2022-08-08T20:40:17.052Z,100.00
2022-08-08T20:42:55.210Z,100.00
2022-08-08T20:45:54.679Z,100.00
2022-08-08T20:48:09.470Z,100.00
2022-08-08T20:50:36.150Z,100.00
2022-08-08T20:53:04.106Z,100.00
2022-08-08T20:55:42.859Z,100.00
2022-08-08T20:58:13.682Z,100.00
2022-08-08T21:00:47.014Z,100.00
2022-08-08T21:03:17.101Z,100.00
2022-08-08T21:05:58.577Z,100.00
2022-08-08T21:08:36.462Z,100.00
2022-08-08T21:11:12.753Z,100.00
2022-08-08T21:13:41.867Z,100.00
2022-08-08T21:16:17.995Z,100.00
2022-08-08T21:18:57.102Z,100.00
2022-08-08T21:21:41.122Z,100.00
2022-08-08T21:24:23.484Z,100.00
2022-08-08T21:26:54.985Z,100.00
2022-08-08T21:29:23.089Z,100.00
2022-08-08T21:32:19.194Z,100.00
2022-08-08T21:34:56.921Z,100.00
2022-08-08T21:37:54.059Z,100.00
2022-08-08T21:40:31.264Z,100.00
2022-08-08T21:42:58.775Z,100.00
2022-08-08T21:47:59.658Z,100.00
2022-08-08T21:48:22.154Z,100.00
2022-08-08T21:50:58.180Z,100.00
2022-08-08T21:54:36.378Z,100.00
2022-08-08T21:56:25.924Z,100.00
2022-08-08T21:58:59.870Z,100.00
2022-08-08T22:01:40.539Z,100.00
2022-08-08T22:04:11.409Z,100.00
2022-08-08T22:06:40.558Z,100.00
2022-08-08T22:09:09.035Z,100.00
2022-08-08T22:12:02.492Z,100.00
2022-08-08T22:14:26.794Z,100.00
2022-08-08T22:16:56.181Z,100.00
2022-08-08T22:19:24.135Z,100.00
2022-08-08T22:21:52.898Z,100.00
2022-08-08T22:24:28.238Z,100.00
2022-08-08T22:27:02.523Z,100.00
2022-08-08T22:30:01.358Z,100.00
2022-08-08T22:32:19.381Z,100.00
2022-08-08T22:34:50.939Z,100.00
2022-08-08T22:37:49.154Z,100.00
2022-08-08T22:40:11.735Z,100.00
2022-08-08T22:42:40.123Z,100.00
2022-08-08T22:45:12.520Z,100.00
2022-08-08T22:47:41.314Z,100.00
2022-08-08T22:50:26.112Z,100.00
2022-08-08T22:54:30.809Z,100.00
2022-08-08T22:55:58.064Z,100.00
2022-08-08T22:58:33.886Z,100.00
2022-08-08T23:02:01.266Z,100.00
2022-08-08T23:03:56.306Z,100.00
2022-08-08T23:06:26.629Z,100.00
2022-08-08T23:08:58.684Z,100.00
2022-08-08T23:11:58.099Z,100.00
2022-08-08T23:14:17.416Z,100.00
2022-08-08T23:16:48.096Z,100.00
2022-08-08T23:19:21.295Z,100.00
2022-08-08T23:21:48.827Z,100.00
2022-08-08T23:24:22.402Z,100.00
2022-08-08T23:26:55.775Z,100.00
2022-08-08T23:29:29.805Z,100.00
2022-08-08T23:31:58.000Z,100.00
2022-08-08T23:34:24.584Z,100.00
2022-08-08T23:36:56.831Z,100.00
2022-08-08T23:39:32.146Z,100.00
2022-08-08T23:42:08.794Z,100.00
2022-08-08T23:44:39.461Z,100.00
2022-08-08T23:49:03.890Z,100.00
2022-08-08T23:50:03.161Z,100.00
2022-08-08T23:52:32.444Z,100.00
2022-08-08T23:55:07.380Z,100.00
2022-08-08T23:57:52.113Z,100.00
